Terminal Aerodrome Forecast
Issued by NWS

Home | Current Version | Previous Version | Text Only | Print | Product List | Glossary On
Versions: 1 2 3 4 5 6 7 8 9 10 11 12 13
617
FTUS42 TJSJ 251125
TAFJBQ
TAF
TJBQ 251125Z 2512/2612 10005KT P6SM SKC
     FM251300 08013KT P6SM FEW030 SCT050
     FM251630 08015KT P6SM VCTS SCT030CB BKN050
     FM252300 10005KT P6SM SCT060
      AMD NOT SKED 2602/2611=

USA.gov is the U.S. government's official web portal to all federal, state and local government web resources and services.